East Amherst, New York
Current Conditions -  °F | °C
As of 2:54 AM on Thursday 29 Jan 2015 (Local Time) from KBUF Reporting Station
Broken Clouds Broken Clouds  
Wind Chill:   Ceiling: 25000
Heat Index: 13°   Visibility: 10mi
Dew Point:   Wind: 6mph
Humidity: 65%   Direction: 150°SSE
Pressure: 30.22"   Gusts: NA
Location:  43.02°N, 78.7°W
Report Text: KBUF 290754Z 15005KT 10SM BKN250 M11/M16 A3022 RMK AO2 SLP248 T11061161
Loading
Personal Weather Stations






























Interactive Weather Map New forecast layout! Learn more

10-Day Weather Forecast

Advertisements
Track Severe Weather on mobile